createdAt,value
2023-03-12T00:01:30.650Z,2.03
2023-03-12T00:04:01.411Z,3.33
2023-03-12T00:06:31.048Z,3.47
2023-03-12T00:09:02.371Z,3.22
2023-03-12T00:11:31.323Z,2.95
2023-03-12T00:14:03.201Z,3.75
2023-03-12T00:16:32.498Z,5.07
2023-03-12T00:19:00.948Z,2.63
2023-03-12T00:21:29.607Z,3.53
2023-03-12T00:23:58.032Z,2.63
2023-03-12T00:26:26.894Z,3.17
2023-03-12T00:28:56.271Z,3.15
2023-03-12T00:31:27.800Z,2.22
2023-03-12T00:33:57.018Z,4.00
2023-03-12T00:36:30.687Z,4.25
2023-03-12T00:39:00.834Z,3.80
2023-03-12T00:41:30.838Z,2.45
2023-03-12T00:43:59.805Z,3.88
2023-03-12T00:46:28.491Z,3.65
2023-03-12T00:48:56.891Z,3.60
2023-03-12T00:51:25.687Z,3.80
2023-03-12T00:53:56.101Z,2.28
2023-03-12T00:56:26.903Z,2.30
2023-03-12T00:58:55.326Z,2.45
2023-03-12T01:01:24.173Z,1.65
2023-03-12T01:03:52.545Z,2.25
2023-03-12T01:06:21.678Z,2.17
2023-03-12T01:08:50.317Z,2.42
2023-03-12T01:11:20.943Z,2.03
2023-03-12T01:13:49.705Z,3.03
2023-03-12T01:16:18.904Z,1.73
2023-03-12T01:18:49.980Z,1.90
2023-03-12T01:21:18.637Z,2.03
2023-03-12T01:23:47.062Z,2.47
2023-03-12T01:26:16.944Z,2.80
2023-03-12T01:28:45.304Z,2.53
2023-03-12T01:31:16.742Z,2.33
2023-03-12T01:33:48.121Z,2.72
2023-03-12T01:36:20.191Z,1.13
2023-03-12T01:38:55.677Z,3.35
2023-03-12T01:41:26.629Z,2.15
2023-03-12T01:43:55.118Z,2.80
2023-03-12T01:46:35.132Z,1.55
2023-03-12T01:49:29.954Z,2.72
2023-03-12T01:52:06.534Z,1.70
2023-03-12T01:55:10.708Z,2.10
2023-03-12T01:57:50.372Z,2.70
2023-03-12T02:00:22.751Z,2.80
2023-03-12T02:03:01.043Z,2.00
2023-03-12T02:05:51.682Z,1.85
2023-03-12T02:08:22.299Z,2.00
2023-03-12T02:10:52.809Z,2.60
2023-03-12T02:13:22.735Z,2.42
2023-03-12T02:15:51.943Z,1.92
2023-03-12T02:18:21.824Z,2.20
2023-03-12T02:21:06.159Z,2.38
2023-03-12T02:23:41.582Z,1.52
2023-03-12T02:26:12.213Z,2.58
2023-03-12T02:28:44.572Z,2.45
2023-03-12T02:31:18.380Z,2.92
2023-03-12T02:33:47.113Z,2.75
2023-03-12T02:36:15.695Z,1.77
2023-03-12T02:38:54.950Z,2.55
2023-03-12T02:41:34.485Z,2.20
2023-03-12T02:44:11.988Z,2.15
2023-03-12T02:46:44.774Z,1.67
2023-03-12T02:49:15.227Z,2.40
2023-03-12T02:51:45.065Z,2.53
2023-03-12T02:54:16.076Z,2.55
2023-03-12T02:56:45.084Z,2.00
2023-03-12T02:59:14.912Z,2.92
2023-03-12T03:01:45.594Z,1.60
2023-03-12T03:04:14.431Z,1.98
2023-03-12T03:06:44.276Z,1.95
2023-03-12T03:09:13.649Z,2.22
2023-03-12T03:11:42.224Z,1.80
2023-03-12T03:14:11.852Z,1.30
2023-03-12T03:16:40.551Z,1.73
2023-03-12T03:19:10.608Z,1.52
2023-03-12T03:21:38.954Z,1.40
2023-03-12T03:24:08.115Z,1.88
2023-03-12T03:26:39.439Z,1.25
2023-03-12T03:31:37.186Z,1.33
2023-03-12T03:34:06.031Z,1.58
2023-03-12T03:36:34.550Z,1.70
2023-03-12T03:39:14.430Z,1.17
2023-03-12T03:41:46.125Z,2.10
2023-03-12T03:44:15.731Z,2.28
2023-03-12T03:46:45.052Z,1.33
2023-03-12T03:49:14.095Z,1.67
2023-03-12T03:51:44.052Z,1.38
2023-03-12T03:54:16.961Z,1.02
2023-03-12T03:56:48.035Z,1.77
2023-03-12T03:59:17.693Z,1.02
2023-03-12T04:01:46.373Z,1.67
2023-03-12T04:04:15.226Z,0.70
2023-03-12T04:06:43.607Z,1.17
2023-03-12T04:09:12.683Z,1.08
2023-03-12T04:11:41.821Z,0.95
2023-03-12T04:14:12.556Z,1.05
2023-03-12T04:16:45.155Z,0.80
2023-03-12T04:19:14.328Z,0.52
2023-03-12T04:21:43.002Z,0.80
2023-03-12T04:24:15.570Z,1.45
2023-03-12T04:26:45.033Z,0.98
2023-03-12T04:29:15.598Z,0.98
2023-03-12T04:31:45.146Z,0.90
2023-03-12T04:34:14.690Z,0.82
2023-03-12T04:36:47.161Z,1.10
2023-03-12T04:39:23.375Z,0.88
2023-03-12T04:41:53.856Z,1.52
2023-03-12T04:44:22.570Z,1.83
2023-03-12T04:46:51.040Z,1.20
2023-03-12T04:49:23.946Z,1.00
2023-03-12T04:51:52.933Z,1.17
2023-03-12T04:54:22.963Z,1.50
2023-03-12T04:56:52.084Z,1.42
2023-03-12T04:59:23.209Z,1.23
2023-03-12T05:01:52.134Z,0.90
2023-03-12T05:04:25.680Z,1.30
2023-03-12T05:06:55.012Z,1.23
2023-03-12T05:09:23.675Z,1.50
2023-03-12T05:11:52.364Z,1.73
2023-03-12T05:14:23.583Z,1.63
2023-03-12T05:16:52.266Z,2.00
2023-03-12T05:19:22.478Z,1.60
2023-03-12T05:21:52.024Z,2.50
2023-03-12T05:24:22.171Z,1.60
2023-03-12T05:26:51.058Z,1.92
2023-03-12T05:29:23.925Z,0.90
2023-03-12T05:31:53.811Z,1.63
2023-03-12T05:34:22.758Z,1.38
2023-03-12T05:36:51.055Z,1.10
2023-03-12T05:39:25.308Z,1.40
2023-03-12T05:41:57.458Z,1.70
2023-03-12T05:44:27.827Z,0.70
2023-03-12T05:46:58.941Z,2.08
2023-03-12T05:51:58.407Z,0.98
2023-03-12T05:54:28.032Z,1.33
2023-03-12T05:56:56.764Z,0.82
2023-03-12T05:59:27.782Z,0.50
2023-03-12T06:01:57.196Z,1.08
2023-03-12T06:04:26.555Z,0.45
2023-03-12T06:06:55.298Z,0.88
2023-03-12T06:09:25.338Z,1.02
2023-03-12T06:11:55.170Z,0.60
2023-03-12T06:14:24.073Z,0.40
2023-03-12T06:16:52.478Z,0.65
2023-03-12T06:19:21.160Z,0.60
2023-03-12T06:21:51.654Z,0.63
2023-03-12T06:24:21.165Z,0.63
2023-03-12T06:26:57.618Z,0.93
2023-03-12T06:29:26.277Z,0.73
2023-03-12T06:31:56.811Z,0.82
2023-03-12T06:34:28.298Z,0.77
2023-03-12T06:36:56.776Z,0.70
2023-03-12T06:39:25.753Z,0.90
2023-03-12T06:41:57.235Z,0.85
2023-03-12T06:44:29.926Z,0.68
2023-03-12T06:46:58.585Z,0.95
2023-03-12T06:49:32.266Z,0.73
2023-03-12T06:52:00.709Z,0.57
2023-03-12T06:54:29.640Z,1.05
2023-03-12T06:56:59.889Z,1.25
2023-03-12T06:59:28.935Z,0.85
2023-03-12T07:01:57.336Z,0.88
2023-03-12T07:04:28.780Z,0.82
2023-03-12T07:06:58.878Z,0.57
2023-03-12T07:09:27.659Z,0.43
2023-03-12T07:11:56.125Z,0.60
2023-03-12T07:14:24.926Z,0.60
2023-03-12T07:16:53.328Z,0.68
2023-03-12T07:20:57.140Z,0.80
2023-03-12T07:22:27.254Z,1.25
2023-03-12T07:28:40.146Z,0.75
2023-03-12T07:31:28.860Z,0.77
2023-03-12T07:34:13.442Z,0.75
2023-03-12T07:36:53.453Z,0.63
2023-03-12T07:39:33.207Z,1.05
2023-03-12T07:42:15.009Z,0.95
2023-03-12T07:48:32.349Z,0.98
2023-03-12T07:51:12.388Z,0.88
2023-03-12T07:54:01.717Z,0.98
2023-03-12T07:56:36.873Z,0.35
2023-03-12T07:59:06.036Z,0.55
2023-03-12T08:01:35.529Z,0.95
2023-03-12T08:04:29.285Z,0.65
2023-03-12T08:06:59.010Z,0.55
2023-03-12T08:09:29.574Z,0.73
2023-03-12T08:12:00.219Z,1.58
2023-03-12T08:14:31.982Z,1.48
2023-03-12T08:17:00.840Z,0.38
2023-03-12T08:19:29.639Z,0.65
2023-03-12T08:24:41.097Z,0.45
2023-03-12T08:27:10.113Z,1.20
2023-03-12T08:29:39.756Z,1.40
2023-03-12T08:32:08.523Z,1.05
2023-03-12T08:34:38.033Z,1.35
2023-03-12T08:37:06.491Z,1.10
2023-03-12T08:39:35.626Z,1.42
2023-03-12T08:42:04.397Z,1.70
2023-03-12T08:44:33.053Z,0.80
2023-03-12T08:47:01.423Z,1.40
2023-03-12T08:49:30.543Z,0.82
2023-03-12T08:52:10.989Z,0.80
2023-03-12T08:54:40.453Z,1.10
2023-03-12T08:59:52.590Z,1.63
2023-03-12T09:02:32.837Z,1.77
2023-03-12T09:05:19.466Z,1.20
2023-03-12T09:07:55.469Z,1.20
2023-03-12T09:10:31.284Z,0.65
2023-03-12T09:13:03.687Z,4.13
2023-03-12T09:15:35.294Z,0.90
2023-03-12T09:18:06.327Z,0.68
2023-03-12T09:20:46.719Z,0.80
2023-03-12T09:24:03.041Z,1.88
2023-03-12T09:27:01.360Z,1.98
2023-03-12T09:29:33.597Z,1.40
2023-03-12T09:32:29.807Z,0.95
2023-03-12T09:35:44.849Z,1.48
2023-03-12T09:39:05.822Z,0.93
2023-03-12T09:46:11.267Z,1.00
2023-03-12T09:49:58.070Z,0.77
2023-03-12T11:00:59.979Z,0.98
2023-03-12T11:03:35.492Z,1.40
2023-03-12T11:06:35.996Z,1.15
2023-03-12T11:09:39.743Z,1.30
2023-03-12T11:12:40.919Z,1.23
2023-03-12T11:19:10.447Z,0.93
2023-03-12T11:22:44.727Z,1.30
2023-03-12T11:25:32.076Z,0.75
2023-03-12T11:28:22.806Z,0.80
2023-03-12T11:31:00.743Z,0.77
2023-03-12T11:33:29.693Z,1.30
2023-03-12T11:36:14.154Z,1.10
2023-03-12T11:38:49.197Z,1.42
2023-03-12T11:41:55.355Z,1.17
2023-03-12T11:44:42.713Z,1.27
2023-03-12T11:47:48.272Z,1.27
2023-03-12T11:50:35.785Z,0.85
2023-03-12T11:53:36.827Z,1.52
2023-03-12T11:56:41.299Z,1.63
2023-03-12T11:59:36.862Z,1.70
2023-03-12T12:02:24.134Z,1.15
2023-03-12T12:05:20.379Z,1.35
2023-03-12T12:07:58.213Z,1.38
2023-03-12T12:10:35.047Z,0.82
2023-03-12T12:13:24.681Z,1.30
2023-03-12T12:16:14.648Z,1.38
2023-03-12T12:19:07.878Z,1.65
2023-03-12T12:21:57.225Z,1.73
2023-03-12T12:24:42.875Z,2.05
2023-03-12T12:27:29.783Z,1.52
2023-03-12T12:30:36.106Z,1.17
2023-03-12T12:33:18.226Z,1.73
2023-03-12T12:35:47.340Z,0.70
2023-03-12T12:38:30.670Z,1.10
2023-03-12T12:41:13.679Z,1.10
2023-03-12T12:43:48.127Z,1.45
2023-03-12T12:46:24.231Z,1.15
2023-03-12T12:49:04.036Z,1.27
2023-03-12T12:51:39.653Z,1.45
2023-03-12T12:54:35.506Z,1.70
2023-03-12T12:57:14.006Z,1.42
2023-03-12T13:00:26.495Z,0.98
2023-03-12T13:02:58.233Z,1.50
2023-03-12T13:05:40.252Z,1.52
2023-03-12T13:08:28.849Z,0.95
2023-03-12T13:11:06.210Z,1.50
2023-03-12T13:13:48.443Z,1.40
2023-03-12T13:21:12.492Z,1.30
2023-03-12T13:24:22.478Z,1.40
2023-03-12T13:27:17.639Z,1.13
2023-03-12T13:29:46.347Z,1.67
2023-03-12T13:32:59.035Z,1.27
2023-03-12T13:35:27.236Z,2.58
2023-03-12T13:37:55.877Z,1.23
2023-03-12T13:40:30.550Z,1.75
2023-03-12T13:43:08.231Z,1.48
2023-03-12T13:46:01.197Z,1.65
2023-03-12T13:48:30.389Z,1.80
2023-03-12T13:51:03.040Z,1.63
2023-03-12T13:53:40.053Z,1.60
2023-03-12T13:56:18.501Z,2.10
2023-03-12T13:59:14.775Z,1.70
2023-03-12T14:01:48.981Z,2.63
2023-03-12T14:04:22.655Z,1.48
2023-03-12T14:07:19.410Z,1.75
2023-03-12T14:10:06.613Z,1.45
2023-03-12T14:13:10.688Z,2.10
2023-03-12T14:16:05.821Z,2.50
2023-03-12T14:18:37.086Z,2.00
2023-03-12T14:21:10.406Z,1.90
2023-03-12T14:23:48.760Z,1.60
2023-03-12T14:26:27.568Z,2.10
2023-03-12T14:29:09.531Z,1.60
2023-03-12T14:31:39.016Z,1.80
2023-03-12T14:34:20.736Z,1.80
2023-03-12T14:37:05.995Z,2.10
2023-03-12T14:39:43.696Z,2.22
2023-03-12T14:42:29.510Z,2.25
2023-03-12T14:45:17.257Z,2.28
2023-03-12T14:47:53.700Z,2.22
2023-03-12T14:50:28.371Z,1.90
2023-03-12T14:53:26.440Z,2.28
2023-03-12T14:56:08.876Z,3.30
2023-03-12T14:58:44.633Z,2.15
2023-03-12T15:01:28.465Z,2.25
2023-03-12T15:04:03.705Z,2.22
2023-03-12T15:06:55.401Z,2.47
2023-03-12T15:09:27.187Z,3.63
2023-03-12T15:12:01.783Z,2.45
2023-03-12T15:14:34.766Z,3.30
2023-03-12T15:17:05.285Z,2.17
2023-03-12T15:19:39.563Z,2.20
2023-03-12T15:22:14.908Z,2.50
2023-03-12T15:24:47.197Z,3.35
2023-03-12T15:27:34.390Z,3.88
2023-03-12T15:30:23.383Z,4.15
2023-03-12T15:33:06.101Z,3.10
2023-03-12T15:35:37.690Z,2.75
2023-03-12T15:38:15.187Z,3.33
2023-03-12T15:41:07.570Z,2.40
2023-03-12T15:43:37.842Z,3.20
2023-03-12T15:46:07.665Z,2.10
2023-03-12T15:48:47.536Z,3.10
2023-03-12T15:51:39.577Z,2.90
2023-03-12T15:54:25.178Z,2.95
2023-03-12T15:57:26.234Z,2.47
2023-03-12T16:00:55.510Z,3.20
2023-03-12T16:03:34.872Z,4.43
2023-03-12T16:06:40.117Z,2.95
2023-03-12T16:09:35.693Z,4.30
2023-03-12T16:12:05.869Z,5.53
2023-03-12T16:14:36.548Z,11.88
2023-03-12T16:17:10.751Z,17.20
2023-03-12T16:19:42.435Z,18.95
2023-03-12T16:22:10.855Z,14.75
2023-03-12T16:25:13.107Z,8.10
2023-03-12T16:27:56.688Z,4.93
2023-03-12T16:30:32.747Z,6.32
2023-03-12T16:40:50.927Z,9.68
2023-03-12T16:43:24.717Z,6.03
2023-03-12T16:45:54.356Z,3.83
2023-03-12T16:49:02.123Z,3.40
2023-03-12T16:51:33.831Z,3.03
2023-03-12T16:54:27.071Z,3.72
2023-03-12T16:57:33.970Z,5.55
2023-03-12T17:00:09.105Z,13.43
2023-03-12T17:02:59.158Z,10.30
2023-03-12T17:05:32.715Z,20.05
2023-03-12T17:08:30.313Z,7.20
2023-03-12T17:11:27.322Z,4.45
2023-03-12T17:14:12.735Z,4.95
2023-03-12T17:16:43.846Z,7.32
2023-03-12T17:19:13.832Z,6.65
2023-03-12T17:21:43.517Z,4.18
2023-03-12T17:24:14.181Z,2.65
2023-03-12T17:26:47.877Z,4.35
2023-03-12T17:29:16.692Z,5.28
2023-03-12T17:32:14.513Z,5.15
2023-03-12T17:34:47.419Z,3.75
2023-03-12T17:37:26.358Z,3.00
2023-03-12T17:39:55.098Z,3.10
2023-03-12T17:42:23.489Z,3.28
2023-03-12T17:45:06.367Z,4.25
2023-03-12T18:42:20.625Z,14.48
2023-03-12T18:50:05.802Z,13.38
2023-03-12T18:55:43.392Z,17.70
2023-03-12T18:59:19.030Z,38.90
2023-03-12T19:02:03.557Z,39.83
2023-03-12T19:18:59.141Z,61.78
2023-03-12T19:21:38.445Z,56.70
2023-03-12T19:24:08.348Z,59.40
2023-03-12T19:26:41.403Z,59.30
2023-03-12T19:29:10.051Z,59.78
2023-03-12T19:31:39.631Z,62.20
2023-03-12T19:34:08.114Z,58.28
2023-03-12T19:36:37.264Z,55.58
2023-03-12T19:39:18.798Z,59.50
2023-03-12T19:41:51.015Z,49.72
2023-03-12T19:44:21.615Z,50.65
2023-03-12T21:36:11.596Z,8.77
2023-03-12T21:38:26.823Z,8.60
2023-03-12T21:40:57.792Z,9.18
2023-03-12T21:43:31.889Z,9.10
2023-03-12T21:46:19.140Z,9.57
2023-03-12T21:49:18.255Z,8.70
2023-03-12T21:51:48.543Z,9.77
2023-03-12T21:54:17.747Z,9.88
2023-03-12T21:56:51.465Z,10.55
2023-03-12T21:59:28.289Z,9.60
2023-03-12T22:01:59.273Z,10.50
2023-03-12T22:04:28.749Z,11.68
2023-03-12T22:06:59.427Z,9.70
2023-03-12T22:09:30.450Z,9.82
2023-03-12T22:11:58.877Z,9.98
2023-03-12T22:14:37.007Z,8.73
2023-03-12T22:17:05.835Z,8.90
2023-03-12T22:19:34.785Z,9.07
2023-03-12T22:22:03.243Z,9.32
2023-03-12T22:24:41.158Z,11.45
2023-03-12T22:27:34.927Z,14.25
2023-03-12T22:30:33.105Z,27.52
2023-03-12T22:33:01.544Z,22.63
2023-03-12T22:35:34.075Z,13.38
2023-03-12T22:40:43.540Z,11.50
2023-03-12T22:43:29.784Z,10.68
2023-03-12T22:46:02.898Z,10.82
2023-03-12T22:48:34.577Z,10.60
2023-03-12T22:51:05.425Z,9.93
2023-03-12T22:57:30.478Z,11.38
